Time;durP1;ratioP1;P1;durP2;ratioP2;P2;SDS_P1;SDS_P2;PMS_P1;PMS_P2;Temp;Humidity;BMP_temperature;BMP_pressure;BME280_temperature;BME280_humidity;BME280_pressure;Samples;Min_cycle;Max_cycle;Signal;HPM_P1;HPM_P2
2023/11/30 00:01:49;;;;;;;6.45;4.32;;;;;;;22.58;29.10;99722.19;4165220;28;20132;-62
2023/11/30 00:03:51;;;;;;;6.63;4.25;;;;;;;22.56;29.11;99716.13;4165034;28;20045;-62
2023/11/30 00:05:53;;;;;;;;;;;;;;;22.55;29.02;99721.66;4165374;28;20046;-62
2023/11/30 00:07:54;;;;;;;7.30;4.40;;;;;;;22.48;29.14;99708.88;4164923;28;19921;-63
2023/11/30 00:09:56;;;;;;;7.45;4.07;;;;;;;22.51;28.83;99713.09;4165100;28;20053;-63
2023/11/30 00:11:57;;;;;;;6.18;4.03;;;;;;;22.51;29.16;99709.59;4164871;28;20054;-62
2023/11/30 00:13:59;;;;;;;;;;;;;;;22.51;28.91;99706.91;4165611;28;20049;-62
2023/11/30 00:16:01;;;;;;;6.33;3.87;;;;;;;22.50;28.87;99700.69;4164668;28;19967;-62
2023/11/30 00:18:02;;;;;;;5.57;3.85;;;;;;;22.55;29.15;99703.72;4164621;28;20327;-63
2023/11/30 00:20:05;;;;;;;;;;;;;;;22.48;29.05;99683.94;4164934;28;20049;-62
2023/11/30 00:22:07;;;;;;;6.07;4.00;;;;;;;22.55;28.91;99700.22;4164789;28;19921;-62
2023/11/30 00:24:08;;;;;;;5.75;3.90;;;;;;;22.51;29.17;99680.94;4164910;28;20059;-62
2023/11/30 00:26:11;;;;;;;7.68;3.85;;;;;;;22.58;28.96;99690.03;4164857;28;20046;-62
2023/11/30 00:28:12;;;;;;;6.68;3.92;;;;;;;22.57;28.91;99690.19;4164744;28;20076;-62
2023/11/30 00:30:15;;;;;;;6.28;3.90;;;;;;;22.55;28.86;99682.28;4164931;28;20049;-62
2023/11/30 00:32:16;;;;;;;6.07;3.95;;;;;;;22.53;29.09;99678.09;4164839;28;20072;-61
2023/11/30 00:34:18;;;;;;;7.18;4.18;;;;;;;22.53;28.81;99678.94;4164539;28;20445;-62
2023/11/30 00:36:20;;;;;;;6.15;4.22;;;;;;;22.55;29.06;99678.78;4164772;28;20056;-64
2023/11/30 00:38:22;;;;;;;6.82;4.22;;;;;;;22.57;29.14;99674.13;4164446;28;20390;-65
2023/11/30 00:40:23;;;;;;;6.22;3.97;;;;;;;22.59;28.66;99664.91;4164638;28;20056;-61
2023/11/30 00:42:25;;;;;;;;;;;;;;;22.60;29.10;99650.53;4165100;28;20052;-61
2023/11/30 00:44:27;;;;;;;6.40;4.43;;;;;;;22.58;28.71;99644.47;4164549;28;20000;-62
2023/11/30 00:46:29;;;;;;;6.80;4.47;;;;;;;22.59;29.01;99647.97;4164412;28;20052;-62
2023/11/30 00:48:31;;;;;;;6.43;4.20;;;;;;;22.55;29.14;99644.78;4164763;28;20045;-64
2023/11/30 00:50:32;;;;;;;6.68;4.15;;;;;;;22.56;28.92;99645.63;4163167;28;20124;-62
2023/11/30 00:52:34;;;;;;;6.63;4.38;;;;;;;22.54;29.21;99651.16;4164373;28;20139;-63
2023/11/30 00:54:35;;;;;;;8.27;4.22;;;;;;;22.54;28.86;99644.94;4164284;28;20500;-60
2023/11/30 00:56:37;;;;;;;7.28;4.15;;;;;;;22.43;29.28;99617.44;4164358;28;20477;-62
2023/11/30 00:58:39;;;;;;;7.05;4.63;;;;;;;22.55;29.27;99628.69;4164093;28;20107;-62
2023/11/30 01:00:40;;;;;;;7.28;4.70;;;;;;;22.57;28.86;99634.75;4164203;28;20049;-62
2023/11/30 01:02:42;;;;;;;6.25;4.57;;;;;;;22.59;28.79;99637.25;4164272;28;20496;-62
2023/11/30 01:04:43;;;;;;;6.07;4.20;;;;;;;22.56;28.75;99632.22;4163944;28;20496;-62
2023/11/30 01:06:45;;;;;;;6.32;3.97;;;;;;;22.60;29.05;99636.25;4163999;28;20049;-62
2023/11/30 01:08:47;;;;;;;6.78;4.60;;;;;;;22.58;28.92;99630.25;4164186;28;20045;-62
2023/11/30 01:10:48;;;;;;;6.90;4.25;;;;;;;22.54;29.12;99637.75;4163996;28;20111;-62
2023/11/30 01:12:50;;;;;;;6.60;4.13;;;;;;;22.56;28.98;99641.09;4163910;28;20045;-62
2023/11/30 01:14:52;;;;;;;7.05;4.45;;;;;;;22.52;28.92;99637.06;4164104;28;20069;-63
2023/11/30 01:16:54;;;;;;;6.35;4.50;;;;;;;22.54;29.04;99636.91;4163692;28;20069;-62
2023/11/30 01:18:55;;;;;;;7.30;4.60;;;;;;;22.46;28.72;99624.31;4163570;28;20046;-64
2023/11/30 01:20:57;;;;;;;6.07;4.00;;;;;;;22.56;29.45;99637.59;4164045;28;20052;-62
2023/11/30 01:22:59;;;;;;;6.95;4.82;;;;;;;22.59;29.01;99634.56;4164229;28;20060;-61
2023/11/30 01:25:00;;;;;;;;;;;;;;;22.61;28.94;99632.59;4164397;28;20041;-62
2023/11/30 01:27:02;;;;;;;6.82;4.63;;;;;;;22.57;28.77;99626.72;4163894;28;19975;-61
2023/11/30 01:29:04;;;;;;;6.55;4.10;;;;;;;22.58;28.71;99628.41;4163793;28;20419;-62
2023/11/30 01:31:06;;;;;;;7.72;4.50;;;;;;;22.55;29.00;99625.19;4163985;28;20057;-62
2023/11/30 01:33:08;;;;;;;6.80;4.22;;;;;;;22.56;28.81;99634.91;4163671;28;20050;-61
2023/11/30 01:35:10;;;;;;;;;;;;;;;22.54;29.01;99628.88;4164067;28;20053;-61
2023/11/30 01:37:12;;;;;;;7.65;4.35;;;;;;;22.30;28.84;99598.25;4163798;28;19971;-61
2023/11/30 01:39:15;;;;;;;7.65;4.45;;;;;;;22.53;29.15;99621.81;4163518;28;20045;-61
2023/11/30 01:41:17;;;;;;;6.45;4.60;;;;;;;22.55;29.00;99623.34;4163704;28;20103;-60
2023/11/30 01:43:21;;;;;;;6.47;4.55;;;;;;;22.59;29.02;99626.53;4163731;28;20053;-61
2023/11/30 01:45:23;;;;;;;6.20;4.32;;;;;;;22.57;29.09;99624.03;4163718;28;20397;-61
2023/11/30 01:47:24;;;;;;;;;;;;;;;22.60;28.95;99630.91;4163763;28;20049;-62
2023/11/30 01:49:26;;;;;;;6.00;4.40;;;;;;;22.55;28.96;99630.56;4162767;28;19968;-62
2023/11/30 01:51:31;;;;;;;6.57;4.53;;;;;;;22.58;28.96;99627.56;4163425;28;20046;-62
2023/11/30 01:53:36;;;;;;;6.80;4.45;;;;;;;22.56;28.99;99629.56;4163540;28;20076;-62
2023/11/30 01:55:38;;;;;;;6.22;4.05;;;;;;;22.54;28.91;99623.50;4163633;28;20053;-61
2023/11/30 01:57:41;;;;;;;6.38;4.53;;;;;;;22.49;28.74;99608.75;4163464;28;20051;-61
2023/11/30 01:59:45;;;;;;;6.35;4.50;;;;;;;22.50;28.80;99612.25;4163762;28;20052;-61
2023/11/30 02:01:46;;;;;;;6.45;4.30;;;;;;;22.55;28.65;99617.97;4162946;28;20427;-61
2023/11/30 02:03:48;;;;;;;6.43;4.35;;;;;;;22.57;28.77;99626.72;4163636;28;20136;-61
2023/11/30 02:05:51;;;;;;;;;;;;;;;22.58;29.13;99616.84;4163743;28;20052;-62
2023/11/30 02:07:52;;;;;;;6.13;4.15;;;;;;;22.57;28.98;99607.94;4163319;28;19975;-61
2023/11/30 02:09:54;;;;;;;6.93;4.60;;;;;;;22.54;28.66;99589.53;4163412;28;20050;-61
2023/11/30 02:11:56;;;;;;;6.20;4.40;;;;;;;22.57;28.66;99593.72;4163246;28;20053;-62
2023/11/30 02:13:57;;;;;;;6.38;4.40;;;;;;;22.52;28.70;99590.66;4163337;28;20069;-61
2023/11/30 02:15:59;;;;;;;6.30;4.55;;;;;;;22.53;28.82;99603.06;4162861;28;20064;-62
2023/11/30 02:18:01;;;;;;;7.25;4.60;;;;;;;22.49;28.74;99592.69;4163340;28;20099;-61
2023/11/30 02:20:03;;;;;;;5.85;4.22;;;;;;;22.51;28.96;99599.72;4163461;28;20107;-61
2023/11/30 02:22:04;;;;;;;7.30;4.40;;;;;;;22.52;28.71;99598.69;4163242;28;20128;-62
2023/11/30 02:24:07;;;;;;;7.72;4.72;;;;;;;22.56;28.63;99602.75;4163347;28;20172;-61
2023/11/30 02:26:09;;;;;;;6.75;4.63;;;;;;;22.48;28.58;99591.00;4163164;28;20045;-61
2023/11/30 02:28:17;;;;;;;6.78;4.40;;;;;;;22.59;28.73;99597.91;4163215;28;20401;-61
2023/11/30 02:30:19;;;;;;;6.60;4.30;;;;;;;22.60;28.56;99604.09;4163135;28;20080;-61
2023/11/30 02:32:21;;;;;;;6.80;4.40;;;;;;;22.60;28.65;99606.78;4163114;28;20424;-61
2023/11/30 02:34:22;;;;;;;7.57;4.95;;;;;;;22.58;28.61;99606.13;4163165;28;20421;-61
2023/11/30 02:36:24;;;;;;;6.93;4.55;;;;;;;22.56;28.53;99602.75;4162924;28;20073;-62
2023/11/30 02:38:26;;;;;;;;;;;;;;;22.53;28.67;99595.88;4163306;28;20054;-61
2023/11/30 02:40:27;;;;;;;6.37;4.50;;;;;;;22.48;29.01;99588.31;4163485;28;19936;-61
2023/11/30 02:42:29;;;;;;;7.28;4.60;;;;;;;22.51;28.63;99581.78;4163014;28;20291;-62
2023/11/30 02:44:30;;;;;;;;;;;;;;;22.53;28.76;99577.13;4163537;28;20052;-62
2023/11/30 02:46:32;;;;;;;6.57;4.28;;;;;;;22.52;28.91;99575.44;4162780;28;19944;-62
2023/11/30 02:48:34;;;;;;;6.78;4.47;;;;;;;22.54;28.96;99568.09;4163070;28;20041;-62
2023/11/30 02:50:35;;;;;;;6.95;4.40;;;;;;;22.57;28.81;99567.75;4163074;28;20045;-62
2023/11/30 02:52:37;;;;;;;6.75;4.55;;;;;;;22.57;28.61;99564.25;4163158;28;20049;-61
2023/11/30 02:54:38;;;;;;;6.75;4.40;;;;;;;22.53;28.75;99550.34;4162917;28;20508;-61
2023/11/30 02:56:40;;;;;;;6.70;4.30;;;;;;;22.55;28.81;99547.47;4162968;28;20046;-61
2023/11/30 02:58:42;;;;;;;6.90;4.80;;;;;;;22.52;28.62;99540.59;4162916;28;20073;-61
2023/11/30 03:00:43;;;;;;;8.10;4.70;;;;;;;22.51;28.64;99532.75;4162783;28;20042;-60
2023/11/30 03:02:45;;;;;;;8.55;4.70;;;;;;;22.48;28.61;99532.06;4163017;28;20049;-60
2023/11/30 03:04:47;;;;;;;;;;;;;;;22.51;28.88;99535.41;4163398;28;20103;-61
2023/11/30 03:06:51;;;;;;;7.10;4.20;;;;;;;22.49;28.61;99538.25;4162923;28;19925;-61
2023/11/30 03:08:53;;;;;;;7.60;4.50;;;;;;;22.52;28.49;99540.59;4162837;28;20065;-61
2023/11/30 03:10:55;;;;;;;;;;;;;;;22.53;28.60;99544.97;4163267;28;20046;-61
2023/11/30 03:12:56;;;;;;;6.88;4.50;;;;;;;22.51;28.75;99536.25;4163424;28;19995;-61
2023/11/30 03:14:58;;;;;;;6.35;4.40;;;;;;;22.49;28.63;99547.13;4165650;28;20120;-61
2023/11/30 03:17:00;;;;;;;6.63;4.72;;;;;;;22.51;28.46;99559.53;4165436;28;20088;-61
2023/11/30 03:19:01;;;;;;;;;;;;;;;22.50;28.57;99566.72;4166253;28;20057;-62
2023/11/30 03:21:18;;;;;;;6.85;4.45;;;;;;;22.46;28.59;99547.44;4165838;28;19987;-61
2023/11/30 03:23:20;;;;;;;7.05;4.47;;;;;;;22.43;28.43;99537.06;4165742;28;20068;-62
2023/11/30 03:25:21;;;;;;;6.78;4.10;;;;;;;22.47;28.99;99540.25;4165784;28;20046;-62
2023/11/30 03:27:23;;;;;;;;;;;;;;;22.48;28.86;99542.78;4166145;28;20052;-61
2023/11/30 03:29:25;;;;;;;6.75;4.60;;;;;;;22.49;28.88;99540.91;4165549;28;19921;-62
2023/11/30 03:31:26;;;;;;;6.10;4.50;;;;;;;22.50;28.71;99529.22;4165520;28;20053;-62
2023/11/30 03:33:29;;;;;;;6.40;4.47;;;;;;;22.54;28.47;99533.25;4165669;28;20501;-62
2023/11/30 03:35:30;;;;;;;7.53;4.82;;;;;;;22.53;28.30;99528.03;4164213;28;20504;-61
2023/11/30 03:37:32;;;;;;;8.07;4.28;;;;;;;22.53;28.50;99526.22;4165543;28;20045;-61
2023/11/30 03:39:34;;;;;;;6.00;4.30;;;;;;;22.47;28.41;99516.16;4165646;28;20069;-61
2023/11/30 03:41:35;;;;;;;;;;;;;;;22.47;28.39;99518.81;4166073;28;20046;-62
2023/11/30 03:43:37;;;;;;;8.48;4.80;;;;;;;22.44;28.65;99522.69;4165211;28;19998;-61
2023/11/30 03:45:38;;;;;;;6.93;4.90;;;;;;;22.46;28.60;99511.78;4165465;28;20507;-61
2023/11/30 03:47:40;;;;;;;;;;;;;;;22.46;28.44;99515.28;4165891;28;20053;-62
2023/11/30 03:49:42;;;;;;;6.68;4.38;;;;;;;22.44;28.46;99511.97;4165407;28;19975;-62
2023/11/30 03:51:43;;;;;;;6.90;4.53;;;;;;;22.49;28.82;99514.97;4165282;28;20049;-61
2023/11/30 03:53:45;;;;;;;7.00;4.82;;;;;;;22.48;28.56;99521.34;4165331;28;20041;-62
2023/11/30 03:55:47;;;;;;;7.00;4.72;;;;;;;22.51;28.36;99524.72;4165310;28;20050;-62
2023/11/30 03:57:51;;;;;;;7.05;4.63;;;;;;;22.51;28.79;99512.13;4164977;28;20045;-61
2023/11/30 03:59:53;;;;;;;7.53;4.60;;;;;;;22.49;28.44;99506.94;4164940;28;20066;-61
2023/11/30 04:01:54;;;;;;;7.05;4.53;;;;;;;22.48;28.46;99507.13;4165325;28;20056;-62
2023/11/30 04:03:56;;;;;;;7.15;4.55;;;;;;;22.45;28.84;99502.91;4165209;28;20049;-61
2023/11/30 04:05:58;;;;;;;6.50;4.75;;;;;;;22.45;28.44;99504.75;4164015;28;20128;-61
2023/11/30 04:08:00;;;;;;;6.57;4.50;;;;;;;22.46;28.74;99509.94;4165065;28;20111;-62
2023/11/30 04:10:02;;;;;;;5.80;4.38;;;;;;;22.48;28.71;99507.94;4164979;28;20049;-61
2023/11/30 04:12:04;;;;;;;;;;;;;;;22.49;28.33;99504.25;4165045;28;20128;-62
2023/11/30 04:14:07;;;;;;;6.30;4.30;;;;;;;22.49;28.69;99509.63;4165016;28;19975;-60
2023/11/30 04:16:09;;;;;;;6.25;4.50;;;;;;;22.49;28.55;99501.59;4164830;28;20053;-61
2023/11/30 04:18:10;;;;;;;;;;;;;;;22.49;28.33;99511.44;4165191;28;20131;-62
2023/11/30 04:20:12;;;;;;;7.10;4.70;;;;;;;22.46;28.65;99503.75;4164782;28;20402;-62
2023/11/30 04:22:13;;;;;;;6.95;5.05;;;;;;;22.45;28.66;99500.22;4164729;28;20056;-62
2023/11/30 04:24:16;;;;;;;6.55;4.50;;;;;;;22.46;28.62;99503.75;4164881;28;20050;-61
2023/11/30 04:26:17;;;;;;;7.40;4.68;;;;;;;22.43;28.59;99512.09;4164727;28;20054;-62
2023/11/30 04:28:19;;;;;;;6.95;4.78;;;;;;;22.43;28.60;99515.63;4164708;28;20057;-61
2023/11/30 04:30:21;;;;;;;6.50;4.40;;;;;;;22.45;28.70;99507.44;4164710;28;20504;-61
2023/11/30 04:32:22;;;;;;;;;;;;;;;22.46;28.45;99501.91;4164062;28;20045;-62
2023/11/30 04:34:24;;;;;;;7.27;4.70;;;;;;;22.47;28.90;99500.06;4164713;28;19944;-62
2023/11/30 04:36:25;;;;;;;6.10;4.43;;;;;;;22.41;28.30;99485.47;4164600;28;20316;-62
2023/11/30 04:38:27;;;;;;;6.93;4.43;;;;;;;22.49;28.64;99490.88;4164452;28;20045;-61
2023/11/30 04:40:29;;;;;;;6.90;4.70;;;;;;;22.48;28.33;99491.03;4164399;28;20096;-62
2023/11/30 04:42:30;;;;;;;7.00;4.85;;;;;;;22.46;28.28;99483.16;4164203;28;20056;-62
2023/11/30 04:44:32;;;;;;;7.00;4.57;;;;;;;22.44;28.22;99478.94;4164383;28;20492;-62
2023/11/30 04:46:34;;;;;;;7.35;4.47;;;;;;;22.40;28.40;99478.44;4164293;28;20046;-62
2023/11/30 04:48:35;;;;;;;;;;;;;;;22.41;28.45;99498.88;4164822;28;20049;-62
2023/11/30 04:50:40;;;;;;;6.28;4.68;;;;;;;22.38;28.78;99493.81;4164183;28;19920;-62
2023/11/30 04:52:42;;;;;;;;;;;;;;;22.42;28.74;99487.16;4164703;28;20048;-61
2023/11/30 04:54:43;;;;;;;7.47;4.70;;;;;;;22.44;28.17;99487.84;4164804;28;19956;-61
2023/11/30 04:56:45;;;;;;;7.97;5.00;;;;;;;22.45;28.53;99476.09;4163798;28;20049;-61
2023/11/30 04:58:47;;;;;;;8.25;5.03;;;;;;;22.43;28.40;99466.56;4163002;28;20480;-61
2023/11/30 05:00:49;;;;;;;7.68;4.93;;;;;;;22.47;28.57;99482.16;4164306;28;20073;-61
2023/11/30 05:02:51;;;;;;;;;;;;;;;22.46;28.11;99471.59;4164635;28;20049;-61
2023/11/30 05:04:53;;;;;;;8.98;5.05;;;;;;;22.42;28.63;99478.25;4163304;28;19928;-62
2023/11/30 05:06:55;;;;;;;7.85;5.30;;;;;;;22.42;28.51;99487.16;4164281;28;20133;-62
2023/11/30 05:08:57;;;;;;;6.95;4.90;;;;;;;22.41;28.58;99487.34;4164318;28;20095;-62
2023/11/30 05:10:58;;;;;;;;;;;;;;;22.42;28.52;99486.31;4164265;28;20435;-62
2023/11/30 05:13:00;;;;;;;6.80;4.75;;;;;;;22.42;28.45;99488.97;4164105;28;19925;-61
2023/11/30 05:15:03;;;;;;;6.95;4.97;;;;;;;22.44;28.23;99484.31;4163908;28;20158;-62
2023/11/30 05:17:05;;;;;;;7.00;5.05;;;;;;;22.47;28.63;99481.31;4163989;28;20763;-62
2023/11/30 05:19:07;;;;;;;7.47;4.90;;;;;;;22.48;28.45;99483.84;4162590;28;20049;-62
2023/11/30 05:21:09;;;;;;;7.13;5.03;;;;;;;22.44;28.35;99471.78;4164100;28;20056;-62
2023/11/30 05:23:11;;;;;;;;;;;;;;;22.46;28.35;99487.69;4164320;28;20483;-62
2023/11/30 05:25:12;;;;;;;6.45;4.53;;;;;;;22.42;28.63;99488.97;4163814;28;20278;-60
2023/11/30 05:27:14;;;;;;;7.25;4.95;;;;;;;22.41;28.11;99490.84;4163744;28;20096;-62
2023/11/30 05:29:15;;;;;;;8.07;4.90;;;;;;;22.40;28.38;99485.66;4163762;28;20064;-62
2023/11/30 05:31:17;;;;;;;6.72;5.10;;;;;;;22.30;28.45;99467.00;4163936;28;20065;-62
2023/11/30 05:33:19;;;;;;;;;;;;;;;22.37;28.61;99468.03;4179347;28;20493;-62
2023/11/30 05:35:22;;;;;;;7.40;4.50;;;;;;;22.37;28.26;99468.03;4163551;28;20331;-62
2023/11/30 05:37:24;;;;;;;7.57;4.60;;;;;;;22.40;28.06;99474.94;4163540;28;20046;-63
2023/11/30 05:39:25;;;;;;;6.55;4.63;;;;;;;22.41;27.99;99481.97;4162306;28;20049;-62
2023/11/30 05:41:27;;;;;;;7.75;4.88;;;;;;;22.41;28.09;99490.84;4163570;28;20049;-63
2023/11/30 05:43:31;;;;;;;6.13;4.30;;;;;;;22.41;28.54;99496.19;4163825;28;20416;-63
2023/11/30 05:45:34;;;;;;;6.82;4.70;;;;;;;22.42;28.43;99486.31;4163913;28;20045;-63
2023/11/30 05:47:35;;;;;;;6.28;4.38;;;;;;;22.40;28.43;99489.16;4163452;28;20072;-61
2023/11/30 05:49:37;;;;;;;7.50;4.55;;;;;;;22.37;28.44;99491.28;4163509;28;20424;-64
2023/11/30 05:51:40;;;;;;;7.68;4.30;;;;;;;22.37;28.16;99493.97;4163421;28;20501;-64
2023/11/30 05:53:41;;;;;;;6.28;4.20;;;;;;;22.33;28.11;99488.94;4163329;28;20450;-62
2023/11/30 05:55:43;;;;;;;5.30;3.80;;;;;;;22.38;28.47;99487.59;4163333;28;20049;-61
2023/11/30 05:57:44;;;;;;;5.80;4.28;;;;;;;22.40;28.21;99481.13;4163541;28;20661;-62
2023/11/30 05:59:47;;;;;;;6.43;4.05;;;;;;;22.41;28.33;99481.97;4163563;28;20065;-61
2023/11/30 06:01:48;;;;;;;6.60;4.03;;;;;;;22.39;28.18;99481.28;4163449;28;20073;-62
2023/11/30 06:03:50;;;;;;;6.93;3.88;;;;;;;22.41;28.35;99490.84;4163392;28;20045;-62
2023/11/30 06:05:52;;;;;;;;;;;;;;;22.38;28.36;99491.16;4164053;28;20111;-61
2023/11/30 06:07:53;;;;;;;6.72;3.97;;;;;;;22.29;28.13;99468.81;4163050;28;20000;-62
2023/11/30 06:09:55;;;;;;;7.15;4.07;;;;;;;22.36;28.05;99468.16;4163495;28;20496;-62
2023/11/30 06:11:57;;;;;;;;;;;;;;;22.34;28.18;99462.97;4163662;28;20042;-61
2023/11/30 06:13:58;;;;;;;7.32;4.15;;;;;;;22.30;28.49;99465.16;4163213;28;20019;-62
2023/11/30 06:16:02;;;;;;;6.35;3.95;;;;;;;22.26;28.16;99453.09;4163162;28;20053;-61
2023/11/30 06:18:04;;;;;;;6.07;3.90;;;;;;;22.32;27.95;99456.94;4163083;28;20053;-62
2023/11/30 06:20:09;;;;;;;5.57;3.80;;;;;;;22.34;27.89;99449.59;4163507;28;20080;-61
2023/11/30 06:22:12;;;;;;;5.75;3.83;;;;;;;22.35;28.06;99451.28;4163480;28;20084;-62
2023/11/30 06:24:14;;;;;;;5.13;3.40;;;;;;;22.37;27.71;99462.66;4162972;28;20046;-62
2023/11/30 06:26:16;;;;;;;6.72;3.70;;;;;;;22.38;27.98;99459.00;4163263;28;20088;-61
2023/11/30 06:28:19;;;;;;;7.45;4.03;;;;;;;22.36;28.04;99452.09;4163069;28;20042;-64
2023/11/30 06:30:21;;;;;;;5.65;3.75;;;;;;;22.33;28.00;99459.47;4163269;28;20049;-61
2023/11/30 06:32:23;;;;;;;;;;;;;;;22.30;28.32;99456.28;4163609;28;20046;-62
2023/11/30 06:34:25;;;;;;;5.57;3.88;;;;;;;22.25;28.39;99459.44;4162100;28;20341;-63
2023/11/30 06:36:26;;;;;;;7.05;3.40;;;;;;;22.26;28.04;99453.09;4161959;28;20128;-61
2023/11/30 06:38:28;;;;;;;5.80;3.30;;;;;;;22.23;27.84;99447.22;4162893;28;20547;-61
2023/11/30 06:40:29;;;;;;;6.45;3.60;;;;;;;22.31;28.00;99461.47;4161910;28;20045;-61
2023/11/30 06:42:31;;;;;;;;;;;;;;;22.36;28.14;99471.72;4163699;28;20046;-61
2023/11/30 06:44:33;;;;;;;5.43;3.17;;;;;;;22.30;28.26;99462.47;4163146;28;19921;-61
2023/11/30 06:46:36;;;;;;;5.75;3.38;;;;;;;22.33;28.13;99461.31;4163187;28;20448;-62
2023/11/30 06:48:38;;;;;;;5.22;3.00;;;;;;;22.31;27.99;99460.66;4164935;28;20466;-62
2023/11/30 06:50:39;;;;;;;5.20;3.08;;;;;;;22.31;27.94;99461.47;4166467;28;20049;-62
2023/11/30 06:52:41;;;;;;;6.03;3.30;;;;;;;22.29;28.25;99468.81;4166123;28;20049;-62
2023/11/30 06:54:42;;;;;;;5.53;3.08;;;;;;;22.29;28.19;99471.50;4166662;28;20057;-62
2023/11/30 06:56:44;;;;;;;;;;;;;;;22.29;27.80;99473.34;4166748;28;20049;-62
2023/11/30 06:58:46;;;;;;;4.90;3.08;;;;;;;22.30;28.02;99469.69;4166201;28;20383;-62
2023/11/30 07:00:49;;;;;;;5.45;3.25;;;;;;;22.34;27.83;99479.06;4165140;28;20049;-62
2023/11/30 07:02:50;;;;;;;7.00;3.20;;;;;;;22.33;27.90;99472.88;4166190;28;20056;-62
2023/11/30 07:04:52;;;;;;;6.05;2.85;;;;;;;22.37;27.96;99472.53;4166241;28;20050;-62
2023/11/30 07:06:54;;;;;;;5.25;3.00;;;;;;;22.33;27.77;99459.47;4165743;28;20045;-62
2023/11/30 07:08:56;;;;;;;5.93;2.92;;;;;;;22.35;28.04;99459.31;4166086;28;20046;-62
2023/11/30 07:10:58;;;;;;;5.72;3.10;;;;;;;22.31;28.18;99448.06;4166033;28;20045;-62
2023/11/30 07:12:59;;;;;;;5.95;2.80;;;;;;;22.30;28.08;99454.44;4165960;28;20107;-62
2023/11/30 07:15:01;;;;;;;5.63;3.33;;;;;;;22.27;27.83;99456.59;4165978;28;20076;-62
2023/11/30 07:17:03;;;;;;;6.20;3.10;;;;;;;22.26;28.17;99444.19;4165591;28;20088;-62
2023/11/30 07:19:06;;;;;;;5.85;2.85;;;;;;;22.28;28.00;99459.09;4165635;28;20081;-62
2023/11/30 07:21:15;;;;;;;5.70;3.30;;;;;;;22.32;27.78;99457.78;4165521;28;20434;-62
2023/11/30 07:23:16;;;;;;;7.32;3.38;;;;;;;22.33;28.06;99464.84;4165805;28;20045;-61
2023/11/30 07:25:18;;;;;;;5.50;3.10;;;;;;;22.36;27.67;99470.84;4165678;28;20045;-61
2023/11/30 07:27:20;;;;;;;4.82;2.90;;;;;;;22.36;27.69;99470.84;4165539;28;20046;-63
2023/11/30 07:29:22;;;;;;;5.72;2.95;;;;;;;22.21;27.96;99439.31;4165858;28;20054;-61
2023/11/30 07:31:27;;;;;;;6.80;3.45;;;;;;;22.32;27.79;99467.66;4165844;28;20401;-62
2023/11/30 07:33:29;;;;;;;5.55;3.13;;;;;;;22.31;27.87;99471.34;4165821;28;20132;-62
2023/11/30 07:35:30;;;;;;;;;;;;;;;22.27;28.02;99478.03;4165709;28;20531;-62
2023/11/30 07:37:32;;;;;;;5.03;3.20;;;;;;;22.23;27.83;99476.69;4165513;28;19921;-62
2023/11/30 07:39:34;;;;;;;5.55;3.40;;;;;;;22.26;27.88;99479.00;4165840;28;20045;-63
2023/11/30 07:41:35;;;;;;;6.32;3.28;;;;;;;22.27;28.02;99483.38;4165428;28;20053;-62
2023/11/30 07:43:37;;;;;;;6.03;3.08;;;;;;;22.33;27.68;99485.41;4165816;28;20050;-62
2023/11/30 07:45:39;;;;;;;6.03;3.20;;;;;;;22.33;28.00;99478.22;4165565;28;20420;-61
2023/11/30 07:47:40;;;;;;;;;;;;;;;22.33;27.93;99480.06;4166091;28;20376;-62
2023/11/30 07:49:42;;;;;;;5.97;2.97;;;;;;;22.27;27.86;99475.34;4165216;28;19925;-63
2023/11/30 07:51:44;;;;;;;8.73;3.50;;;;;;;22.29;27.66;99478.72;4164411;28;20054;-62
2023/11/30 07:53:45;;;;;;;;;;;;;;;22.26;27.98;99479.88;4148621;28;20046;-62
2023/11/30 07:55:47;;;;;;;6.53;3.53;;;;;;;22.22;27.98;99477.66;4149082;28;19925;-62
2023/11/30 07:57:49;;;;;;;;;;;;;;;22.20;27.92;99483.19;4147687;28;20037;-62
2023/11/30 07:59:51;;;;;;;11.93;3.47;;;;;;;22.17;27.49;99483.50;4148885;28;20016;-63
2023/11/30 08:01:52;;;;;;;;;;;;;;;22.16;27.44;99485.34;4149223;28;20471;-63
2023/11/30 08:03:54;;;;;;;14.48;4.03;;;;;;;22.16;27.45;99480.00;4148800;28;19927;-65
2023/11/30 08:05:56;;;;;;;;;;;;;;;22.20;27.60;99487.69;4149321;28;20128;-63
2023/11/30 08:07:57;;;;;;;10.63;4.15;;;;;;;22.17;27.49;99480.81;4148862;28;19921;-65
2023/11/30 08:09:59;;;;;;;15.90;4.32;;;;;;;22.13;27.50;99480.31;4147846;28;20125;-64
2023/11/30 08:12:01;;;;;;;15.18;4.55;;;;;;;22.02;27.75;99470.72;4150247;28;20048;-65
2023/11/30 08:14:02;;;;;;;14.02;4.18;;;;;;;22.07;27.71;99491.66;4165021;28;20136;-63
2023/11/30 08:16:05;;;;;;;26.85;5.93;;;;;;;21.96;27.71;99481.22;4164939;28;20195;-65
2023/11/30 08:18:07;;;;;;;29.63;6.15;;;;;;;22.00;27.72;99510.19;4165200;28;20049;-63
2023/11/30 08:20:13;;;;;;;14.30;4.15;;;;;;;21.98;27.37;99514.88;4164787;28;20066;-65
2023/11/30 08:22:15;;;;;;;19.23;4.43;;;;;;;22.01;27.70;99511.88;4157112;28;20351;-65
2023/11/30 08:24:17;;;;;;;;;;;;;;;22.02;27.32;99513.53;4147703;28;20068;-63
2023/11/30 08:26:20;;;;;;;12.38;4.20;;;;;;;21.94;27.25;99510.81;4148470;28;19921;-65
2023/11/30 08:28:23;;;;;;;16.17;4.32;;;;;;;21.97;27.63;99518.53;4148372;28;20046;-62
2023/11/30 08:30:26;;;;;;;79.25;9.05;;;;;;;21.95;27.44;99519.72;4148601;28;20053;-62
2023/11/30 08:32:28;;;;;;;66.68;7.72;;;;;;;21.89;27.84;99523.00;4132115;28;20050;-64
2023/11/30 08:34:29;;;;;;;19.33;4.50;;;;;;;21.80;27.60;99525.63;4132046;28;20567;-64
2023/11/30 08:36:31;;;;;;;11.45;3.90;;;;;;;21.72;27.88;99520.22;4132132;28;20050;-65
2023/11/30 08:38:33;;;;;;;13.02;3.33;;;;;;;21.68;27.61;99524.22;4132250;28;20078;-63
2023/11/30 08:40:35;;;;;;;15.75;3.85;;;;;;;21.69;27.78;99516.03;4145256;28;20046;-63
2023/11/30 08:42:37;;;;;;;15.85;4.43;;;;;;;21.71;27.58;99513.19;4148518;28;20077;-63
2023/11/30 08:44:38;;;;;;;;;;;;;;;21.77;27.45;99509.88;4148523;28;20057;-63
2023/11/30 08:46:40;;;;;;;24.13;5.57;;;;;;;21.77;27.87;99509.03;4148374;28;20462;-63
2023/11/30 08:48:42;;;;;;;23.42;5.18;;;;;;;21.80;27.63;99520.28;4146277;28;20070;-64
2023/11/30 08:50:43;;;;;;;23.65;5.40;;;;;;;21.80;27.57;99528.31;4147183;28;20125;-63
2023/11/30 08:52:45;;;;;;;27.05;5.57;;;;;;;21.81;27.52;99529.13;4146312;28;20126;-62
2023/11/30 08:54:47;;;;;;;17.33;4.78;;;;;;;21.79;27.46;99534.66;4147409;28;20058;-63
2023/11/30 08:56:48;;;;;;;15.27;4.25;;;;;;;21.75;27.62;99544.00;4147290;28;20046;-62
2023/11/30 08:58:51;;;;;;;11.85;4.28;;;;;;;21.69;27.24;99540.09;4147330;28;20444;-62
2023/11/30 09:00:53;;;;;;;15.40;4.43;;;;;;;21.54;27.91;99531.78;4147413;28;20085;-66
2023/11/30 09:02:56;;;;;;;16.58;4.00;;;;;;;21.68;27.80;99548.28;4147036;28;20056;-63
2023/11/30 09:04:58;;;;;;;19.50;4.78;;;;;;;21.69;27.45;99550.81;4147239;28;20046;-63
2023/11/30 09:06:59;;;;;;;26.27;4.95;;;;;;;21.69;27.28;99550.81;4147358;28;20059;-63
2023/11/30 09:09:01;;;;;;;17.88;5.20;;;;;;;21.73;27.03;99561.22;4147105;28;20048;-62
2023/11/30 09:11:05;;;;;;;16.00;4.40;;;;;;;21.74;27.21;99557.50;4146599;28;20061;-64
2023/11/30 09:13:07;;;;;;;18.50;5.03;;;;;;;21.74;27.66;99558.38;4157514;28;20061;-62
2023/11/30 09:15:10;;;;;;;15.15;4.20;;;;;;;21.73;27.40;99566.56;4163319;28;20045;-62
2023/11/30 09:17:12;;;;;;;12.68;3.90;;;;;;;21.73;27.32;99566.56;4161884;28;20050;-62
2023/11/30 09:19:13;;;;;;;9.75;4.10;;;;;;;21.69;27.34;99558.00;4163312;28;20054;-63
2023/11/30 09:21:15;;;;;;;11.80;3.60;;;;;;;21.62;27.61;99543.56;4155583;28;20045;-63
2023/11/30 09:23:17;;;;;;;13.63;3.80;;;;;;;21.73;27.39;99558.53;4146926;28;20053;-63
2023/11/30 09:25:19;;;;;;;12.60;4.30;;;;;;;21.74;27.26;99555.69;4145574;28;20041;-63
2023/11/30 09:27:21;;;;;;;12.90;4.40;;;;;;;21.73;27.41;99547.84;4145495;28;20061;-63
2023/11/30 09:29:23;;;;;;;;;;;;;;;21.84;27.36;99569.81;4145676;28;20038;-64
2023/11/30 09:31:25;;;;;;;9.27;3.60;;;;;;;21.86;26.98;99572.34;4146872;28;19921;-62
2023/11/30 09:33:26;;;;;;;13.25;4.40;;;;;;;21.84;27.28;99577.84;4145988;28;20101;-60
2023/11/30 09:35:28;;;;;;;12.02;4.35;;;;;;;21.83;26.83;99573.47;4147467;28;20523;-62
2023/11/30 09:37:30;;;;;;;8.98;4.20;;;;;;;21.78;26.88;99566.94;4147231;28;20053;-65
2023/11/30 09:39:31;;;;;;;9.93;3.80;;;;;;;21.64;26.91;99545.09;4147233;28;20101;-64
2023/11/30 09:41:38;;;;;;;8.98;3.70;;;;;;;21.73;26.71;99561.22;4145070;28;20413;-63